createdAt,value
2018-06-25T00:02:05.298Z,49.98
2018-06-25T00:05:30.000Z,49.84
2018-06-25T00:08:54.637Z,49.74
2018-06-25T00:12:19.325Z,50.19
2018-06-25T00:15:44.012Z,50.72
2018-06-25T00:19:08.706Z,49.98
2018-06-25T00:22:33.360Z,50.44
2018-06-25T00:25:58.010Z,50.64
2018-06-25T00:29:22.704Z,50.98
2018-06-25T00:32:47.410Z,51.51
2018-06-25T00:36:12.094Z,51.15
2018-06-25T00:39:36.842Z,51.03
2018-06-25T00:43:01.585Z,51.75
2018-06-25T00:46:27.260Z,51.42
2018-06-25T00:49:52.068Z,51.76
2018-06-25T00:53:16.748Z,50.94
2018-06-25T00:56:41.398Z,51.70
2018-06-25T01:00:06.132Z,51.34
2018-06-25T01:03:30.823Z,51.42
2018-06-25T01:06:55.514Z,52.33
2018-06-25T01:10:21.168Z,51.57
2018-06-25T01:13:45.832Z,52.80
2018-06-25T01:17:10.952Z,54.11
2018-06-25T01:20:35.725Z,54.16
2018-06-25T01:24:00.520Z,54.21
2018-06-25T01:27:25.178Z,53.87
2018-06-25T01:30:49.998Z,54.77
2018-06-25T01:34:14.587Z,54.39
2018-06-25T01:37:39.304Z,55.04
2018-06-25T01:41:04.058Z,53.75
2018-06-25T01:44:28.839Z,54.09
2018-06-25T01:47:53.471Z,54.09
2018-06-25T01:51:18.136Z,54.23
2018-06-25T01:54:42.904Z,54.15
2018-06-25T01:58:07.698Z,53.69
2018-06-25T02:01:32.384Z,54.84
2018-06-25T02:04:57.131Z,53.99
2018-06-25T02:08:21.729Z,54.21
2018-06-25T02:11:46.365Z,54.36
2018-06-25T02:15:11.343Z,53.28
2018-06-25T02:18:36.096Z,53.65
2018-06-25T02:22:00.710Z,54.25
2018-06-25T02:25:25.475Z,54.16
2018-06-25T02:28:50.166Z,54.17
2018-06-25T02:32:14.794Z,53.60
2018-06-25T02:35:39.442Z,52.76
2018-06-25T02:39:04.316Z,53.27
2018-06-25T02:42:29.022Z,53.56
2018-06-25T02:45:53.351Z,52.86
2018-06-25T02:49:17.628Z,53.58
2018-06-25T02:52:42.267Z,53.43
2018-06-25T02:56:06.935Z,53.66
2018-06-25T02:59:31.567Z,54.96
2018-06-25T03:02:56.271Z,54.22
2018-06-25T03:06:20.963Z,53.81
2018-06-25T03:09:45.675Z,54.76
2018-06-25T03:13:10.335Z,55.23
2018-06-25T03:16:35.485Z,55.17
2018-06-25T03:20:00.189Z,55.48
2018-06-25T03:23:24.871Z,55.18
2018-06-25T03:26:49.617Z,54.82
2018-06-25T03:30:15.377Z,54.68
2018-06-25T03:33:40.078Z,55.21
2018-06-25T03:37:04.881Z,55.99
2018-06-25T03:40:29.518Z,55.88
2018-06-25T03:43:54.221Z,56.34
2018-06-25T03:47:18.856Z,55.51
2018-06-25T03:50:43.474Z,56.50
2018-06-25T03:54:08.131Z,56.24
2018-06-25T03:57:32.797Z,56.69
2018-06-25T04:00:57.627Z,56.71
2018-06-25T04:04:22.487Z,56.67
2018-06-25T04:07:47.486Z,56.93
2018-06-25T04:11:12.209Z,57.16
2018-06-25T04:14:36.869Z,57.04
2018-06-25T04:18:01.697Z,57.26
2018-06-25T04:21:26.452Z,57.61
2018-06-25T04:24:51.165Z,58.05
2018-06-25T04:28:15.968Z,57.57
2018-06-25T04:31:40.762Z,58.07
2018-06-25T04:35:05.477Z,57.33
2018-06-25T04:38:30.328Z,57.75
2018-06-25T04:41:55.176Z,58.16
2018-06-25T04:45:20.961Z,57.94
2018-06-25T04:48:45.722Z,57.69
2018-06-25T04:52:10.487Z,56.96
2018-06-25T04:55:35.350Z,56.68
2018-06-25T04:59:00.166Z,56.98
2018-06-25T05:02:24.995Z,57.03
2018-06-25T05:05:49.693Z,56.64
2018-06-25T05:09:14.514Z,56.19
2018-06-25T05:12:38.896Z,57.24
2018-06-25T05:16:03.272Z,55.96
2018-06-25T05:19:27.962Z,56.56
2018-06-25T05:22:52.777Z,56.99
2018-06-25T05:26:17.484Z,56.95
2018-06-25T05:29:42.176Z,56.42
2018-06-25T05:33:07.464Z,56.99
2018-06-25T05:36:32.170Z,57.07
2018-06-25T05:39:56.964Z,56.91
2018-06-25T05:43:21.668Z,58.31
2018-06-25T05:46:46.412Z,57.34
2018-06-25T05:50:11.260Z,58.14
2018-06-25T05:53:36.128Z,57.98
2018-06-25T05:57:00.832Z,57.49
2018-06-25T06:00:25.555Z,57.32
2018-06-25T06:03:50.224Z,57.54
2018-06-25T06:07:14.985Z,57.70
2018-06-25T06:10:39.766Z,58.01
2018-06-25T06:14:05.311Z,58.58
2018-06-25T06:17:30.161Z,57.26
2018-06-25T06:20:54.918Z,56.85
2018-06-25T06:24:19.744Z,56.69
2018-06-25T06:27:44.385Z,57.65
2018-06-25T06:31:09.072Z,57.19
2018-06-25T06:34:33.845Z,58.14
2018-06-25T06:37:58.591Z,58.67
2018-06-25T06:41:23.354Z,57.72
2018-06-25T06:44:48.112Z,58.74
2018-06-25T06:48:12.807Z,57.98
2018-06-25T06:51:37.397Z,57.73
2018-06-25T06:55:02.101Z,59.18
2018-06-25T06:58:26.891Z,58.55
2018-06-25T07:01:51.594Z,58.29
2018-06-25T07:05:16.383Z,58.89
2018-06-25T07:08:41.350Z,58.98
2018-06-25T07:12:06.075Z,59.73
2018-06-25T07:15:30.901Z,59.57
2018-06-25T07:18:56.360Z,59.49
2018-06-25T07:22:21.017Z,58.98
2018-06-25T07:25:45.805Z,59.32
2018-06-25T07:29:10.501Z,58.63
2018-06-25T07:32:35.357Z,56.86
2018-06-25T07:36:00.124Z,58.36
2018-06-25T07:39:24.921Z,58.62
2018-06-25T07:42:49.754Z,56.49
2018-06-25T07:46:14.703Z,56.55
2018-06-25T07:49:39.419Z,56.34
2018-06-25T07:53:04.185Z,57.07
2018-06-25T07:56:28.904Z,57.01
2018-06-25T07:59:53.623Z,57.18
2018-06-25T08:03:18.310Z,58.51
2018-06-25T08:06:43.205Z,57.96
2018-06-25T08:10:08.097Z,56.39
2018-06-25T08:13:32.641Z,56.14
2018-06-25T08:16:57.360Z,56.32
2018-06-25T08:20:22.184Z,56.99
2018-06-25T08:23:46.843Z,56.65
2018-06-25T08:27:11.511Z,57.32
2018-06-25T08:30:36.239Z,57.72
2018-06-25T08:34:01.244Z,58.71
2018-06-25T08:37:25.925Z,57.30
2018-06-25T08:40:50.635Z,56.83
2018-06-25T08:44:15.343Z,56.10
2018-06-25T08:47:39.995Z,59.01
2018-06-25T08:51:05.378Z,56.75
2018-06-25T08:54:30.092Z,55.81
2018-06-25T08:57:54.753Z,55.14
2018-06-25T09:01:19.723Z,55.93
2018-06-25T09:04:44.469Z,55.16
2018-06-25T09:08:09.272Z,54.05
2018-06-25T09:11:33.931Z,54.08
2018-06-25T09:14:58.635Z,54.48
2018-06-25T09:18:23.994Z,53.62
2018-06-25T09:21:48.677Z,54.29
2018-06-25T09:25:13.349Z,52.53
2018-06-25T09:28:38.113Z,52.93
2018-06-25T09:32:02.799Z,51.52
2018-06-25T09:35:27.483Z,50.96
2018-06-25T09:38:52.129Z,49.97
2018-06-25T09:42:16.803Z,49.43
2018-06-25T09:45:41.536Z,49.49
2018-06-25T09:49:06.287Z,48.79
2018-06-25T09:52:30.925Z,51.50
2018-06-25T09:55:55.635Z,50.27
2018-06-25T09:59:20.245Z,48.24
2018-06-25T10:02:44.945Z,48.79
2018-06-25T10:06:09.629Z,48.27
2018-06-25T10:09:35.237Z,48.56
2018-06-25T10:12:59.949Z,48.61
2018-06-25T10:16:24.853Z,48.97
2018-06-25T10:19:49.561Z,49.08
2018-06-25T10:23:14.295Z,48.96
2018-06-25T10:26:39.109Z,46.86
2018-06-25T10:30:03.945Z,47.80
2018-06-25T10:33:28.805Z,45.35
2018-06-25T10:36:53.538Z,44.73
2018-06-25T10:40:18.243Z,43.62
2018-06-25T10:43:42.911Z,43.56
2018-06-25T10:47:07.677Z,43.19
2018-06-25T10:50:32.447Z,42.34
2018-06-25T10:53:57.116Z,43.20
2018-06-25T10:57:22.351Z,42.49
2018-06-25T11:00:47.116Z,44.77
2018-06-25T11:04:11.887Z,46.11
2018-06-25T11:07:36.983Z,44.60
2018-06-25T11:11:01.830Z,43.85
2018-06-25T11:14:26.490Z,43.60
2018-06-25T11:17:51.181Z,43.36
2018-06-25T11:21:16.061Z,43.53
2018-06-25T11:24:40.401Z,44.09
2018-06-25T11:28:05.580Z,45.69
2018-06-25T11:31:30.302Z,44.05
2018-06-25T11:34:54.945Z,42.55
2018-06-25T11:38:19.701Z,41.83
2018-06-25T11:41:44.455Z,41.96
2018-06-25T11:45:09.089Z,41.15
2018-06-25T11:48:33.787Z,40.92
2018-06-25T11:51:58.773Z,39.48
2018-06-25T11:55:24.820Z,40.61
2018-06-25T11:58:49.625Z,41.08
2018-06-25T12:02:14.465Z,41.64
2018-06-25T12:05:39.119Z,40.57
2018-06-25T12:09:04.088Z,43.34
2018-06-25T12:12:28.795Z,43.26
2018-06-25T12:15:54.216Z,41.92
2018-06-25T12:19:18.861Z,42.72
2018-06-25T12:22:43.601Z,41.96
2018-06-25T12:26:08.251Z,42.23
2018-06-25T12:29:33.071Z,41.44
2018-06-25T12:32:57.867Z,39.93
2018-06-25T12:36:22.507Z,39.40
2018-06-25T12:39:47.308Z,39.14
2018-06-25T12:43:12.108Z,41.38
2018-06-25T12:46:37.123Z,41.89
2018-06-25T12:50:01.778Z,41.45
2018-06-25T12:53:26.422Z,42.48
2018-06-25T12:56:50.835Z,42.88
2018-06-25T13:00:15.613Z,41.48
2018-06-25T13:03:40.235Z,41.88
2018-06-25T13:07:05.031Z,42.14
2018-06-25T13:10:29.685Z,41.98
2018-06-25T13:13:54.335Z,39.44
2018-06-25T13:17:18.936Z,37.72
2018-06-25T13:20:43.686Z,36.53
2018-06-25T13:24:07.944Z,38.52
2018-06-25T13:27:32.613Z,39.64
2018-06-25T13:30:57.253Z,38.24
2018-06-25T13:34:21.940Z,37.31
2018-06-25T13:37:46.686Z,38.28
2018-06-25T13:41:11.359Z,36.98
2018-06-25T13:44:36.301Z,37.56
2018-06-25T13:48:00.609Z,35.26
2018-06-25T13:51:25.279Z,35.93
2018-06-25T13:54:50.021Z,36.78
2018-06-25T13:58:14.766Z,38.14
2018-06-25T14:01:39.876Z,38.76
2018-06-25T14:05:04.232Z,39.41
2018-06-25T14:08:28.997Z,38.16
2018-06-25T14:11:53.717Z,36.72
2018-06-25T14:15:18.411Z,36.57
2018-06-25T14:18:43.170Z,36.74
2018-06-25T14:22:07.882Z,35.33
2018-06-25T14:25:36.557Z,34.21
2018-06-25T14:29:01.287Z,33.38
2018-06-25T14:32:31.239Z,32.88
2018-06-25T14:35:55.882Z,33.99
2018-06-25T14:39:20.654Z,35.64
2018-06-25T14:42:45.324Z,37.04
2018-06-25T14:46:10.161Z,36.03
2018-06-25T14:49:34.841Z,33.49
2018-06-25T14:52:59.471Z,33.79
2018-06-25T14:56:24.160Z,33.73
2018-06-25T14:59:48.472Z,34.21
2018-06-25T15:03:13.091Z,33.29
2018-06-25T15:06:37.851Z,32.73
2018-06-25T15:10:02.613Z,31.78
2018-06-25T15:13:27.405Z,33.86
2018-06-25T15:16:51.789Z,34.73
2018-06-25T15:20:16.454Z,33.13
2018-06-25T15:23:41.135Z,31.43
2018-06-25T15:27:06.119Z,29.25
2018-06-25T15:30:30.720Z,29.25
2018-06-25T15:33:55.061Z,30.57
2018-06-25T15:37:20.327Z,30.32
2018-06-25T15:40:45.051Z,29.66
2018-06-25T15:44:09.853Z,30.10
2018-06-25T15:47:34.182Z,29.76
2018-06-25T15:50:58.878Z,27.10
2018-06-25T15:54:23.639Z,26.47
2018-06-25T15:57:48.315Z,28.54
2018-06-25T16:01:13.599Z,27.99
2018-06-25T16:04:38.333Z,29.23
2018-06-25T16:08:03.014Z,26.51
2018-06-25T16:11:27.335Z,27.41
2018-06-25T16:14:51.657Z,27.48
2018-06-25T16:18:16.456Z,27.43
2018-06-25T16:21:41.191Z,28.41
2018-06-25T16:25:06.570Z,29.33
2018-06-25T16:28:31.313Z,29.91
2018-06-25T16:31:56.224Z,28.69
2018-06-25T16:35:20.883Z,27.15
2018-06-25T16:38:45.520Z,28.49
2018-06-25T16:42:10.233Z,26.64
2018-06-25T16:45:34.907Z,28.43
2018-06-25T16:48:59.711Z,27.35
2018-06-25T16:52:24.400Z,27.61
2018-06-25T16:55:50.037Z,26.43
2018-06-25T16:59:14.783Z,28.10
2018-06-25T17:02:39.474Z,28.05
2018-06-25T17:06:03.870Z,28.14
2018-06-25T17:09:28.583Z,28.45
2018-06-25T17:12:53.217Z,27.32
2018-06-25T17:16:18.219Z,28.53
2018-06-25T17:19:42.517Z,27.72
2018-06-25T17:23:07.625Z,28.67
2018-06-25T17:26:31.986Z,28.24
2018-06-25T17:29:56.344Z,27.83
2018-06-25T17:33:20.964Z,28.33
2018-06-25T17:36:45.325Z,26.89
2018-06-25T17:40:10.096Z,28.50
2018-06-25T17:43:35.000Z,27.48
2018-06-25T17:47:00.335Z,27.73
2018-06-25T17:50:27.149Z,27.95
2018-06-25T17:53:52.049Z,28.81
2018-06-25T17:57:16.938Z,28.70
2018-06-25T18:00:41.381Z,30.50
2018-06-25T18:04:06.028Z,30.62
2018-06-25T18:07:30.947Z,30.07
2018-06-25T18:10:56.032Z,30.09
2018-06-25T18:14:21.723Z,30.71
2018-06-25T18:17:46.421Z,32.01
2018-06-25T18:21:11.277Z,30.62
2018-06-25T18:24:35.959Z,31.10
2018-06-25T18:28:00.830Z,31.15
2018-06-25T18:31:25.635Z,30.84
2018-06-25T18:34:50.411Z,30.61
2018-06-25T18:38:14.931Z,31.90
2018-06-25T18:41:40.863Z,33.16
2018-06-25T18:45:05.392Z,33.96
2018-06-25T18:48:30.069Z,34.43
2018-06-25T18:51:54.787Z,34.83
2018-06-25T18:55:19.577Z,34.77
2018-06-25T18:58:44.436Z,35.14
2018-06-25T19:02:09.160Z,35.64
2018-06-25T19:05:34.028Z,35.91
2018-06-25T19:08:59.771Z,35.19
2018-06-25T19:12:24.517Z,36.55
2018-06-25T19:15:49.294Z,37.02
2018-06-25T19:19:14.201Z,37.02
2018-06-25T19:22:40.924Z,37.96
2018-06-25T19:26:06.213Z,38.54
2018-06-25T19:29:31.073Z,39.01
2018-06-25T19:32:55.769Z,39.74
2018-06-25T19:36:21.035Z,39.05
2018-06-25T19:39:45.776Z,40.06
2018-06-25T19:43:10.477Z,40.60
2018-06-25T19:46:35.250Z,40.99
2018-06-25T19:49:59.972Z,40.55
2018-06-25T19:53:24.677Z,41.29
2018-06-25T19:56:49.449Z,41.01
2018-06-25T20:00:14.224Z,42.10
2018-06-25T20:03:38.881Z,42.40
2018-06-25T20:07:03.607Z,42.68
2018-06-25T20:10:28.583Z,42.94
2018-06-25T20:13:53.318Z,43.68
2018-06-25T20:17:18.289Z,43.98
2018-06-25T20:20:45.157Z,43.85
2018-06-25T20:24:09.689Z,44.55
2018-06-25T20:27:34.074Z,44.94
2018-06-25T20:30:58.860Z,44.59
2018-06-25T20:34:24.295Z,44.96
2018-06-25T20:37:49.032Z,45.50
2018-06-25T20:41:13.444Z,46.31
2018-06-25T20:44:38.173Z,47.25
2018-06-25T20:48:02.880Z,47.49
2018-06-25T20:51:27.628Z,47.92
2018-06-25T20:54:52.260Z,47.61
2018-06-25T20:58:16.895Z,48.00
2018-06-25T21:01:41.249Z,48.50
2018-06-25T21:05:06.278Z,49.12
2018-06-25T21:08:30.918Z,49.66
2018-06-25T21:11:55.542Z,50.54
2018-06-25T21:15:20.167Z,49.57
2018-06-25T21:18:44.913Z,49.95
2018-06-25T21:22:09.626Z,50.34
2018-06-25T21:25:34.490Z,49.83
2018-06-25T21:28:59.206Z,50.97
2018-06-25T21:32:23.950Z,51.45
2018-06-25T21:35:48.694Z,51.87
2018-06-25T21:39:13.471Z,51.65
2018-06-25T21:42:38.097Z,51.88
2018-06-25T21:46:02.757Z,51.37
2018-06-25T21:49:27.590Z,52.90
2018-06-25T21:52:52.279Z,52.38
2018-06-25T21:56:16.949Z,52.15
2018-06-25T21:59:41.605Z,52.79
2018-06-25T22:03:06.294Z,53.79
2018-06-25T22:06:30.999Z,54.30
2018-06-25T22:09:55.331Z,52.44
2018-06-25T22:13:20.033Z,52.52
2018-06-25T22:16:44.751Z,53.69
2018-06-25T22:20:09.539Z,53.74
2018-06-25T22:23:34.339Z,54.04
2018-06-25T22:26:59.322Z,54.69
2018-06-25T22:30:24.291Z,54.91
2018-06-25T22:33:48.548Z,54.61
2018-06-25T22:37:13.447Z,54.66
2018-06-25T22:40:39.179Z,55.09
2018-06-25T22:44:14.750Z,55.67
2018-06-25T22:47:39.430Z,55.90
2018-06-25T22:51:04.154Z,56.60
2018-06-25T22:54:28.817Z,56.12
2018-06-25T22:57:53.878Z,56.77
2018-06-25T23:01:18.569Z,56.65
2018-06-25T23:04:43.227Z,57.02
2018-06-25T23:08:07.538Z,56.02
2018-06-25T23:11:32.179Z,56.56
2018-06-25T23:14:56.816Z,57.29
2018-06-25T23:18:21.423Z,57.15
2018-06-25T23:21:46.057Z,58.03
2018-06-25T23:25:10.726Z,57.06
2018-06-25T23:28:35.427Z,57.83
2018-06-25T23:32:00.126Z,57.57
2018-06-25T23:35:24.847Z,59.11
2018-06-25T23:38:49.527Z,58.02
2018-06-25T23:42:14.237Z,57.74
2018-06-25T23:45:38.983Z,57.69
2018-06-25T23:49:03.744Z,58.04
2018-06-25T23:52:28.429Z,58.87
2018-06-25T23:55:53.061Z,58.00
2018-06-25T23:59:27.221Z,58.25
